Time;durP1;ratioP1;P1;durP2;ratioP2;P2;SDS_P1;SDS_P2;PMS_P1;PMS_P2;Temp;Humidity;BMP_temperature;BMP_pressure;BME280_temperature;BME280_humidity;BME280_pressure;Samples;Min_cycle;Max_cycle;Signal;HPM_P1;HPM_P2
2021/11/21 00:00:19;;;;;;;;;28.00;24.75;;;;;18.91;42.97;100934.84;5061265;28;45236;-76
2021/11/21 00:02:44;;;;;;;;;30.75;26.25;;;;;18.90;43.00;100928.69;5060820;28;46213;-76
2021/11/21 00:05:11;;;;;;;;;25.75;19.75;;;;;18.90;42.75;100930.47;5060831;28;45396;-77
2021/11/21 00:07:51;;;;;;;;;28.50;24.25;;;;;18.88;42.81;100929.66;5059872;28;45361;-77
2021/11/21 00:10:22;;;;;;;;;26.50;20.00;;;;;18.86;42.64;100923.53;5059804;28;45474;-79
2021/11/21 00:12:48;;;;;;;;;25.50;24.00;;;;;18.82;43.05;100903.31;5059363;28;45347;-76
2021/11/21 00:15:13;;;;;;;;;18.50;14.50;;;;;18.87;42.43;100912.91;5061005;28;45251;-77
2021/11/21 00:17:39;;;;;;;;;30.00;22.25;;;;;18.89;43.10;100910.22;5059490;28;45585;-77
2021/11/21 00:20:06;;;;;;;;;22.50;20.25;;;;;18.87;43.04;100896.19;5039284;28;45349;-77
2021/11/21 00:22:35;;;;;;;;;21.25;19.50;;;;;18.92;42.91;100902.22;5058276;28;46286;-77
2021/11/21 00:25:04;;;;;;;;;19.50;19.00;;;;;18.96;42.55;100897.75;5043619;28;45387;-78
2021/11/21 00:27:30;;;;;;;;;19.50;17.00;;;;;18.96;42.63;100892.44;5059826;28;45249;-76
2021/11/21 00:29:55;;;;;;;;;23.25;19.25;;;;;18.95;42.84;100893.38;5039489;28;45423;-76
2021/11/21 00:32:23;;;;;;;;;19.50;16.25;;;;;18.93;42.65;100882.78;5059298;28;48220;-77
2021/11/21 00:34:51;;;;;;;;;21.75;17.50;;;;;18.93;42.61;100891.59;5059936;28;61562;-77
2021/11/21 00:37:28;;;;;;;;;22.50;17.50;;;;;18.95;42.67;100891.59;5060908;28;45388;-76
2021/11/21 00:39:54;;;;;;;;;27.00;23.25;;;;;18.95;42.72;100882.78;5027645;28;45521;-77
2021/11/21 00:42:19;;;;;;;;;21.75;18.75;;;;;18.93;42.63;100881.00;5059402;28;45325;-76
2021/11/21 00:44:48;;;;;;;;;20.50;19.00;;;;;18.94;42.29;100876.63;5059372;28;45268;-76
2021/11/21 00:47:13;;;;;;;;;21.00;20.00;;;;;18.89;42.14;100874.06;5059497;28;45420;-76
2021/11/21 00:49:40;;;;;;;;;19.50;19.50;;;;;18.85;42.86;100868.88;5058702;28;60726;-76
2021/11/21 00:52:06;;;;;;;;;22.75;21.25;;;;;18.91;43.08;100871.38;5059065;28;45417;-76
2021/11/21 00:57:06;;;;;;;;;24.25;19.50;;;;;18.93;42.80;100862.50;5059415;28;45363;-76
2021/11/21 00:59:32;;;;;;;;;18.50;17.75;;;;;18.96;42.28;100853.66;5025708;28;45380;-76
2021/11/21 01:01:57;;;;;;;;;19.75;18.75;;;;;18.97;42.86;100852.75;5059005;28;46268;-77
2021/11/21 01:04:22;;;;;;;;;19.25;17.50;;;;;19.00;43.20;100860.59;5042155;28;45301;-76
2021/11/21 01:06:48;;;;;;;;;20.25;16.75;;;;;19.04;43.14;100854.34;5059925;28;48378;-76
2021/11/21 01:09:13;;;;;;;;;18.25;16.00;;;;;19.08;43.00;100857.75;5059822;28;52913;-76
2021/11/21 01:11:50;;;;;;;;;21.00;18.50;;;;;19.09;42.47;100857.72;5041325;28;65952;-76
2021/11/21 01:14:15;;;;;;;;;16.00;16.00;;;;;19.11;42.61;100855.03;5041897;28;45397;-76
2021/11/21 01:16:41;;;;;;;;;16.50;16.00;;;;;19.09;42.35;100852.44;5059430;28;63103;-76
2021/11/21 01:19:06;;;;;;;;;16.50;14.50;;;;;19.08;42.56;100858.63;5038618;28;45821;-77
2021/11/21 01:21:34;;;;;;;;;16.50;16.00;;;;;19.09;42.51;100848.91;5050010;28;46000;-77
2021/11/21 01:24:00;;;;;;;;;15.75;15.00;;;;;19.07;42.88;100854.25;5038629;28;45449;-76
2021/11/21 01:26:26;;;;;;;;;20.50;17.00;;;;;19.09;43.16;100849.78;5058443;28;53927;-76
2021/11/21 01:28:51;;;;;;;;;16.25;14.00;;;;;19.12;42.90;100849.72;5058698;28;45338;-76
2021/11/21 01:31:17;;;;;;;;;16.25;16.25;;;;;19.15;43.17;100844.34;5028958;28;47782;-76
2021/11/21 01:33:42;;;;;;;;;17.25;16.00;;;;;19.20;42.78;100849.56;5056960;28;45242;-76
2021/11/21 01:36:10;;;;;;;;;16.50;15.50;;;;;19.24;42.77;100842.41;5058006;28;59433;-76
2021/11/21 01:38:37;;;;;;;;;16.50;14.00;;;;;19.25;42.34;100841.47;5058585;28;45527;-76
2021/11/21 01:41:03;;;;;;;;;17.75;14.75;;;;;19.24;42.30;100842.41;5041710;28;47549;-77
2021/11/21 01:43:28;;;;;;;;;23.00;18.00;;;;;19.20;42.05;100842.47;5041500;28;45359;-76
2021/11/21 01:45:53;;;;;;;;;16.75;15.75;;;;;19.14;42.26;100837.34;5074819;28;61188;-76
2021/11/21 01:48:19;;;;;;;;;17.25;17.00;;;;;19.12;42.18;100844.44;5037007;28;51486;-76
2021/11/21 01:50:44;;;;;;;;;19.75;15.50;;;;;19.13;42.15;100840.03;5037917;28;51327;-76
2021/11/21 01:53:13;;;;;;;;;17.50;14.50;;;;;19.11;42.17;100834.78;5038242;28;45344;-76
2021/11/21 01:55:38;;;;;;;;;14.25;13.75;;;;;19.10;42.31;100835.66;5038266;28;45267;-76
2021/11/21 01:58:04;;;;;;;;;16.50;12.50;;;;;19.08;42.33;100841.91;5038347;28;45253;-76
2021/11/21 02:00:31;;;;;;;;;16.75;13.50;;;;;19.05;42.08;100834.91;5023983;28;46509;-76
2021/11/21 02:02:57;;;;;;;;;18.50;15.75;;;;;19.02;42.38;100832.31;5045775;28;45524;-76
2021/11/21 02:05:22;;;;;;;;;18.50;16.50;;;;;19.01;42.12;100829.72;5061907;28;45942;-76
2021/11/21 02:07:50;;;;;;;;;16.50;14.50;;;;;18.98;42.53;100825.38;5044897;28;45426;-76
2021/11/21 02:10:18;;;;;;;;;16.50;14.50;;;;;19.00;42.33;100828.84;5061591;28;47310;-76
2021/11/21 02:12:43;;;;;;;;;17.75;16.50;;;;;19.01;42.40;100817.34;5059684;28;45228;-76
2021/11/21 02:15:17;;;;;;;;;17.00;14.25;;;;;19.00;42.22;100823.56;5061689;28;45524;-76
2021/11/21 02:17:42;;;;;;;;;17.00;15.00;;;;;19.02;42.47;100815.56;5061505;28;45308;-76
2021/11/21 02:20:20;;;;;;;;;22.75;16.75;;;;;19.03;42.44;100812.94;5028180;28;46741;-76
2021/11/21 02:22:46;;;;;;;;;21.75;17.75;;;;;19.03;42.98;100820.84;5046802;28;46070;-76
2021/11/21 02:25:11;;;;;;;;;13.00;13.00;;;;;19.06;42.77;100809.31;5061495;28;45614;-76
2021/11/21 02:27:36;;;;;;;;;25.50;17.00;;;;;19.08;42.38;100807.50;5061641;28;45476;-76
2021/11/21 02:30:04;;;;;;;;;17.25;15.50;;;;;19.08;42.40;100802.22;5043971;28;67243;-77
2021/11/21 02:32:29;;;;;;;;;20.75;18.50;;;;;19.07;42.78;100797.84;5061376;28;45347;-76
2021/11/21 02:34:55;;;;;;;;;25.00;20.50;;;;;19.07;42.59;100792.53;5060767;28;53574;-76
2021/11/21 02:37:20;;;;;;;;;17.25;15.25;;;;;19.06;42.63;100794.31;5062943;28;45301;-76
2021/11/21 02:39:46;;;;;;;;;23.25;17.00;;;;;19.06;42.94;100791.69;5044562;28;46199;-76
2021/11/21 02:42:27;;;;;;;;;26.75;22.50;;;;;19.11;42.65;100794.19;5027213;28;65269;-76
2021/11/21 02:44:52;;;;;;;;;27.25;23.00;;;;;19.13;42.60;100790.63;5061299;28;45516;-76
2021/11/21 02:47:18;;;;;;;;;20.00;18.00;;;;;19.13;42.68;100781.81;5061507;28;45726;-76
2021/11/21 02:49:43;;;;;;;;;20.25;12.75;;;;;19.13;42.39;100782.69;5061107;28;45452;-76
2021/11/21 02:52:08;;;;;;;;;20.25;15.25;;;;;19.13;42.63;100787.97;5060328;28;66799;-76
2021/11/21 02:54:34;;;;;;;;;17.50;16.25;;;;;19.11;42.03;100787.16;5060518;28;54341;-76
2021/11/21 02:56:59;;;;;;;;;19.75;15.75;;;;;19.06;42.25;100775.81;5061089;28;45338;-77
2021/11/21 02:59:26;;;;;;;;;25.25;18.00;;;;;19.04;42.43;100779.41;5043763;28;54704;-76
2021/11/21 03:01:51;;;;;;;;;20.50;17.75;;;;;19.01;42.59;100767.09;5061017;28;45271;-76
2021/11/21 03:04:17;;;;;;;;;21.25;15.25;;;;;18.99;42.60;100761.00;5060963;28;45513;-76
2021/11/21 03:06:42;;;;;;;;;17.75;17.00;;;;;19.01;42.78;100758.31;5059981;28;65613;-76
2021/11/21 03:09:08;;;;;;;;;19.50;18.00;;;;;19.01;42.64;100753.88;5060544;28;54898;-76
2021/11/21 03:11:33;;;;;;;;;19.25;15.75;;;;;19.00;42.24;100746.84;5059460;28;46009;-76
2021/11/21 03:14:00;;;;;;;;;18.50;18.50;;;;;18.97;42.28;100752.22;5044174;28;45262;-76
2021/11/21 03:16:26;;;;;;;;;24.25;19.50;;;;;18.96;42.53;100744.34;5044042;28;45213;-77
2021/11/21 03:18:51;;;;;;;;;23.00;18.00;;;;;18.97;42.67;100738.13;5060618;28;46629;-76
2021/11/21 03:21:17;;;;;;;;;22.50;18.00;;;;;18.97;42.30;100739.00;5061884;28;45197;-76
2021/11/21 03:23:42;;;;;;;;;18.25;16.75;;;;;18.95;42.86;100724.97;5060920;28;45852;-76
2021/11/21 03:26:08;;;;;;;;;19.75;16.00;;;;;18.96;42.39;100726.69;5043838;28;45494;-76
2021/11/21 03:28:33;;;;;;;;;20.25;17.50;;;;;18.96;42.65;100724.03;5061635;28;45975;-76
2021/11/21 03:30:59;;;;;;;;;24.50;21.25;;;;;18.98;42.12;100729.28;5043720;28;45679;-76
2021/11/21 03:33:24;;;;;;;;;22.50;19.50;;;;;18.96;42.38;100728.47;5061256;28;55449;-76
2021/11/21 03:35:49;;;;;;;;;21.00;18.00;;;;;18.95;42.26;100735.53;5043173;28;53326;-76
2021/11/21 03:38:15;;;;;;;;;21.50;18.75;;;;;18.92;42.90;100728.53;5059784;28;61077;-76
2021/11/21 03:40:40;;;;;;;;;24.00;19.25;;;;;18.91;42.67;100723.28;5042888;28;68907;-76
2021/11/21 03:43:06;;;;;;;;;17.50;17.50;;;;;18.91;42.23;100728.56;5059876;28;59331;-76
2021/11/21 03:45:31;;;;;;;;;18.25;17.25;;;;;18.89;42.56;100730.41;5060510;28;45593;-76
2021/11/21 03:47:57;;;;;;;;;21.25;18.50;;;;;18.88;42.52;100726.03;5043327;28;47203;-76
2021/11/21 03:50:22;;;;;;;;;18.00;14.25;;;;;18.88;42.69;100726.03;5061515;28;45306;-76
2021/11/21 03:52:48;;;;;;;;;22.75;18.50;;;;;18.88;42.67;100726.03;5026980;28;45321;-76
2021/11/21 03:55:15;;;;;;;;;24.25;19.75;;;;;18.88;42.28;100720.72;5043012;28;53502;-76
2021/11/21 03:57:40;;;;;;;;;26.25;22.50;;;;;18.85;42.04;100715.50;5043266;28;48039;-76
2021/11/21 04:00:07;;;;;;;;;23.25;20.00;;;;;18.82;42.79;100718.22;5042865;28;58079;-76
2021/11/21 04:02:33;;;;;;;;;25.00;20.25;;;;;18.81;42.46;100721.78;5060015;28;45409;-76
2021/11/21 04:04:58;;;;;;;;;18.00;14.50;;;;;18.80;42.70;100722.69;5060152;28;45363;-76
2021/11/21 04:07:23;;;;;;;;;24.25;18.75;;;;;18.81;42.74;100720.00;5059950;28;45425;-77
2021/11/21 04:09:49;;;;;;;;;20.75;19.00;;;;;18.81;42.72;100725.28;5059270;28;66443;-76
2021/11/21 04:12:14;;;;;;;;;22.25;18.75;;;;;18.78;42.99;100727.16;5053722;28;45348;-76
2021/11/21 04:14:39;;;;;;;;;27.25;21.50;;;;;18.78;42.58;100711.28;5059086;28;64948;-76
2021/11/21 04:17:05;;;;;;;;;24.50;21.25;;;;;18.79;43.37;100711.25;5042468;28;60505;-76
2021/11/21 04:19:30;;;;;;;;;17.75;16.00;;;;;18.82;43.05;100712.94;5059370;28;59314;-76
2021/11/21 04:21:56;;;;;;;;;23.75;20.50;;;;;18.82;42.78;100703.22;5041828;28;61378;-76
2021/11/21 04:24:21;;;;;;;;;22.75;17.00;;;;;18.80;42.82;100710.34;5042836;28;45896;-76
2021/11/21 04:26:48;;;;;;;;;19.25;19.25;;;;;18.82;43.02;100705.00;5059187;28;61800;-76
2021/11/21 04:29:14;;;;;;;;;27.00;21.25;;;;;18.85;42.87;100699.63;5043099;28;45248;-76
2021/11/21 04:31:39;;;;;;;;;20.00;17.75;;;;;18.86;43.13;100696.97;5059846;28;45482;-76
2021/11/21 04:34:04;;;;;;;;;20.25;16.75;;;;;18.87;42.75;100689.91;5042591;28;46079;-76
2021/11/21 04:36:30;;;;;;;;;19.75;17.75;;;;;18.90;42.82;100692.47;5059269;28;47981;-76
2021/11/21 04:38:56;;;;;;;;;17.25;15.25;;;;;18.91;42.71;100688.91;5059391;28;45247;-76
2021/11/21 04:41:21;;;;;;;;;24.00;18.75;;;;;18.88;43.08;100692.50;5059619;28;45634;-76
2021/11/21 04:43:46;;;;;;;;;20.00;16.75;;;;;18.90;43.37;100687.16;5059369;28;45271;-76
2021/11/21 04:46:12;;;;;;;;;25.25;20.50;;;;;18.92;42.89;100682.69;5059226;28;49578;-76
2021/11/21 04:48:37;;;;;;;;;18.50;17.25;;;;;18.89;43.01;100678.38;5025808;28;45430;-76
2021/11/21 04:51:03;;;;;;;;;22.75;19.75;;;;;18.89;42.74;100683.66;5059361;28;45804;-76
2021/11/21 04:53:28;;;;;;;;;19.25;18.25;;;;;18.88;43.18;100681.06;5058576;28;66198;-76
2021/11/21 04:55:54;;;;;;;;;24.50;21.25;;;;;18.87;42.60;100680.19;5058337;28;70101;-76
2021/11/21 04:58:19;;;;;;;;;25.00;20.75;;;;;18.87;42.89;100668.75;5058559;28;59462;-76
2021/11/21 05:00:45;;;;;;;;;21.25;20.25;;;;;18.87;42.62;100672.25;5059485;28;45692;-76
2021/11/21 05:03:10;;;;;;;;;19.75;17.50;;;;;18.85;42.84;100668.78;5042019;28;46121;-76
2021/11/21 05:05:36;;;;;;;;;25.25;21.00;;;;;18.84;43.04;100661.75;5041849;28;51824;-76
2021/11/21 05:08:01;;;;;;;;;22.00;18.50;;;;;18.82;42.58;100660.06;5025568;28;45320;-76
2021/11/21 05:10:27;;;;;;;;;22.00;19.75;;;;;18.82;42.98;100654.75;5042331;28;45430;-76
2021/11/21 05:12:52;;;;;;;;;24.25;20.50;;;;;18.80;43.00;100651.31;5059390;28;66154;-76
2021/11/21 05:15:19;;;;;;;;;24.75;19.25;;;;;18.79;43.13;100654.84;5060016;28;46045;-76
2021/11/21 05:17:46;;;;;;;;;24.00;19.00;;;;;18.76;43.20;100649.63;5025817;28;45277;-76
2021/11/21 05:20:11;;;;;;;;;24.50;18.75;;;;;18.74;42.99;100644.38;5059019;28;45328;-76
2021/11/21 05:22:37;;;;;;;;;22.50;18.50;;;;;18.72;43.20;100643.56;5058790;28;45271;-75
2021/11/21 05:25:03;;;;;;;;;18.00;12.50;;;;;18.73;42.82;100650.59;5041974;28;47548;-76
2021/11/21 05:27:28;;;;;;;;;18.50;16.00;;;;;18.73;42.95;100647.06;5058647;28;45264;-76
2021/11/21 05:29:53;;;;;;;;;29.00;23.75;;;;;18.76;43.00;100644.34;5042068;28;45339;-76
2021/11/21 05:32:19;;;;;;;;;22.75;17.50;;;;;18.76;42.53;100642.56;5058118;28;54904;-76
2021/11/21 05:34:45;;;;;;;;;23.25;20.25;;;;;18.75;42.66;100640.81;5040684;28;46977;-76
2021/11/21 05:37:10;;;;;;;;;22.75;17.00;;;;;18.74;42.76;100646.16;5057777;28;66724;-76
2021/11/21 05:39:36;;;;;;;;;16.75;15.75;;;;;18.72;43.33;100638.28;5042018;28;45801;-76
2021/11/21 05:42:01;;;;;;;;;26.25;17.50;;;;;18.73;42.87;100645.28;5041621;28;51360;-76
2021/11/21 05:44:26;;;;;;;;;20.00;17.50;;;;;18.72;43.03;100635.63;5024308;28;70265;-76
2021/11/21 05:46:52;;;;;;;;;19.00;18.00;;;;;18.74;42.89;100647.03;5057538;28;67579;-76
2021/11/21 05:49:17;;;;;;;;;19.75;18.50;;;;;18.75;43.02;100647.91;5058239;28;57533;-77
2021/11/21 05:51:42;;;;;;;;;17.00;16.00;;;;;18.73;43.40;100640.00;5057810;28;56841;-76
2021/11/21 05:54:08;;;;;;;;;25.75;19.00;;;;;18.73;43.01;100632.09;5059699;28;46595;-75
2021/11/21 05:56:34;;;;;;;;;18.75;15.00;;;;;18.75;43.08;100621.47;5058448;28;45200;-76
2021/11/21 05:58:59;;;;;;;;;22.25;20.00;;;;;18.77;42.70;100623.19;5058734;28;45185;-76
2021/11/21 06:01:25;;;;;;;;;22.75;18.50;;;;;18.79;43.27;100620.47;5058189;28;45305;-76
2021/11/21 06:03:51;;;;;;;;;17.25;15.75;;;;;18.80;43.22;100633.66;5058154;28;45711;-75
2021/11/21 06:06:18;;;;;;;;;22.75;18.50;;;;;18.81;42.83;100631.88;5036782;28;45198;-76
2021/11/21 06:08:43;;;;;;;;;21.75;16.75;;;;;18.80;43.31;100627.50;5049818;28;45514;-75
2021/11/21 06:11:08;;;;;;;;;19.50;19.25;;;;;18.80;43.37;100619.56;5058171;28;45561;-77
2021/11/21 06:13:34;;;;;;;;;19.25;18.00;;;;;18.80;43.22;100625.72;5040780;28;64348;-78
2021/11/21 06:15:59;;;;;;;;;22.25;17.75;;;;;18.81;43.18;100618.66;5074839;28;45338;-77
2021/11/21 06:18:25;;;;;;;;;20.75;15.75;;;;;18.80;43.48;100611.63;5058147;28;45804;-76
2021/11/21 06:20:50;;;;;;;;;26.25;18.75;;;;;18.81;43.35;100618.66;5040631;28;55507;-75
2021/11/21 06:23:16;;;;;;;;;23.25;19.00;;;;;18.79;43.08;100613.41;5057786;28;56882;-76
2021/11/21 06:25:44;;;;;;;;;17.25;17.25;;;;;18.79;43.35;100613.41;5057991;28;45406;-76
2021/11/21 06:28:12;;;;;;;;;19.25;13.75;;;;;18.80;43.17;100615.16;5047130;28;45404;-76
2021/11/21 06:30:38;;;;;;;;;20.75;18.75;;;;;18.82;43.04;100618.63;5037836;28;45525;-77
2021/11/21 06:33:03;;;;;;;;;19.50;17.50;;;;;18.84;43.28;100610.63;5021333;28;45391;-77
2021/11/21 06:35:29;;;;;;;;;15.50;15.00;;;;;18.84;43.12;100616.78;5037444;28;45403;-77
2021/11/21 06:37:58;;;;;;;;;16.00;13.50;;;;;18.83;43.57;100606.25;5037980;28;45427;-75
2021/11/21 06:40:23;;;;;;;;;15.75;14.50;;;;;18.87;43.37;100613.22;5037839;28;45649;-77
2021/11/21 06:42:48;;;;;;;;;14.75;14.00;;;;;18.92;43.25;100613.94;5037556;28;52844;-76
2021/11/21 06:45:15;;;;;;;;;15.75;14.00;;;;;18.93;43.32;100610.38;5038183;28;45390;-76
2021/11/21 06:47:40;;;;;;;;;19.25;17.00;;;;;18.94;43.29;100604.22;5024908;28;45333;-76
2021/11/21 06:50:07;;;;;;;;;17.50;16.50;;;;;18.90;43.20;100610.47;5040858;28;45252;-77
2021/11/21 06:52:34;;;;;;;;;20.00;14.50;;;;;18.90;43.01;100608.69;5024523;28;47893;-77
2021/11/21 06:55:00;;;;;;;;;16.25;14.00;;;;;18.91;42.83;100612.22;5024371;28;45269;-77
2021/11/21 06:57:25;;;;;;;;;16.25;13.25;;;;;18.90;43.22;100611.34;5024628;28;45393;-77
2021/11/21 06:59:50;;;;;;;;;16.25;15.75;;;;;18.92;43.38;100612.16;5040873;28;45492;-77
2021/11/21 07:02:16;;;;;;;;;15.75;14.50;;;;;18.93;43.02;100611.25;5039974;28;66932;-76
2021/11/21 07:04:41;;;;;;;;;18.25;14.00;;;;;18.95;43.26;100607.72;5059426;28;45332;-77
2021/11/21 07:07:08;;;;;;;;;15.00;15.00;;;;;18.97;42.74;100612.06;5060314;28;64360;-77
2021/11/21 07:09:33;;;;;;;;;22.25;17.50;;;;;18.95;42.80;100613.88;5060771;28;45744;-76
2021/11/21 07:11:58;;;;;;;;;17.00;13.50;;;;;18.96;42.80;100612.09;5069626;28;46183;-77
2021/11/21 07:14:24;;;;;;;;;22.00;14.75;;;;;18.95;43.00;100605.94;5042859;28;70901;-77
2021/11/21 07:16:49;;;;;;;;;15.00;13.75;;;;;18.95;43.06;100605.09;5060989;28;45212;-78
2021/11/21 07:19:15;;;;;;;;;16.00;14.75;;;;;18.96;43.28;100607.69;5060681;28;45228;-75
2021/11/21 07:21:40;;;;;;;;;14.25;14.25;;;;;18.98;43.32;100605.84;5060607;28;45329;-78
2021/11/21 07:24:06;;;;;;;;;16.75;12.00;;;;;18.97;42.81;100613.84;5060650;28;45207;-76
2021/11/21 07:26:31;;;;;;;;;15.50;13.25;;;;;18.97;43.19;100606.75;5044042;28;46230;-76
2021/11/21 07:28:57;;;;;;;;;22.00;16.25;;;;;18.97;42.82;100601.47;5060422;28;45538;-76
2021/11/21 07:31:22;;;;;;;;;17.75;15.75;;;;;18.95;42.89;100600.66;5027092;28;47303;-76
2021/11/21 07:33:47;;;;;;;;;16.25;13.50;;;;;18.92;42.82;100604.22;5043571;28;45647;-77
2021/11/21 07:36:13;;;;;;;;;14.25;14.25;;;;;18.89;42.86;100603.47;5026854;28;49095;-77
2021/11/21 07:38:39;;;;;;;;;16.50;16.50;;;;;18.88;43.03;100612.31;5042663;28;67645;-76
2021/11/21 07:41:04;;;;;;;;;16.00;15.50;;;;;18.87;43.59;100600.88;5060456;28;45402;-75
2021/11/21 07:43:30;;;;;;;;;13.50;12.25;;;;;18.89;43.28;100600.81;5059926;28;58521;-76
2021/11/21 07:45:58;;;;;;;;;16.50;15.00;;;;;18.89;43.24;100592.88;5060685;28;45294;-75
2021/11/21 07:48:24;;;;;;;;;19.00;14.00;;;;;18.92;43.42;100595.44;5043659;28;45363;-76
2021/11/21 07:50:49;;;;;;;;;14.75;12.25;;;;;18.95;42.94;100592.72;5060101;28;45276;-76
2021/11/21 07:53:15;;;;;;;;;18.25;15.00;;;;;18.97;42.83;100590.91;5060148;28;45430;-76
2021/11/21 07:55:40;;;;;;;;;16.75;13.75;;;;;19.00;43.34;100582.00;5043452;28;45259;-77
2021/11/21 07:58:06;;;;;;;;;14.00;13.75;;;;;19.01;43.07;100587.25;5059157;28;45747;-76
2021/11/21 08:00:31;;;;;;;;;19.00;14.00;;;;;19.02;42.72;100588.97;5060009;28;47348;-76
2021/11/21 08:02:57;;;;;;;;;15.00;14.75;;;;;18.97;43.05;100590.03;5058934;28;67961;-76
2021/11/21 08:05:26;;;;;;;;;14.00;12.00;;;;;18.93;43.47;100590.09;5063018;28;45438;-72
2021/11/21 08:07:51;;;;;;;;;14.75;13.00;;;;;18.93;43.27;100594.53;5061301;28;45595;-76
2021/11/21 08:10:17;;;;;;;;;14.00;13.75;;;;;18.92;42.82;100603.38;5042412;28;64808;-76
2021/11/21 08:12:42;;;;;;;;;15.75;13.75;;;;;18.90;43.37;100602.53;5059804;28;45459;-77
2021/11/21 08:15:07;;;;;;;;;18.50;14.75;;;;;18.88;43.17;100602.59;5043197;28;45544;-77
2021/11/21 08:17:33;;;;;;;;;17.00;13.25;;;;;18.85;43.39;100592.13;5059601;28;45472;-77
2021/11/21 08:19:58;;;;;;;;;16.00;12.75;;;;;18.90;43.27;100594.63;5042353;28;61481;-77
2021/11/21 08:22:26;;;;;;;;;13.00;12.00;;;;;18.90;43.29;100584.91;5042794;28;45911;-75
2021/11/21 08:24:53;;;;;;;;;16.00;14.00;;;;;18.92;43.10;100587.50;5059874;28;45559;-76
2021/11/21 08:27:18;;;;;;;;;10.50;10.50;;;;;18.91;43.35;100591.91;5060908;28;45293;-76
2021/11/21 08:29:43;;;;;;;;;14.25;13.50;;;;;18.93;42.97;100597.16;5044549;28;47167;-75
2021/11/21 08:32:09;;;;;;;;;17.50;14.75;;;;;18.95;43.19;100598.00;5060697;28;45269;-76
2021/11/21 08:34:34;;;;;;;;;13.25;13.00;;;;;18.95;43.39;100598.00;5060939;28;45580;-75
2021/11/21 08:37:00;;;;;;;;;13.75;13.75;;;;;18.98;43.39;100594.41;5059464;28;45495;-75
2021/11/21 08:39:25;;;;;;;;;16.75;13.75;;;;;18.97;43.23;100582.97;5041897;28;68211;-76
2021/11/21 08:41:51;;;;;;;;;14.50;12.25;;;;;18.97;43.31;100585.59;5042514;28;45315;-76
2021/11/21 08:44:17;;;;;;;;;15.00;13.00;;;;;18.99;43.13;100588.19;5059791;28;45431;-76
2021/11/21 08:46:42;;;;;;;;;13.75;11.75;;;;;18.99;43.04;100583.78;5060427;28;45360;-75
2021/11/21 08:49:08;;;;;;;;;15.25;13.50;;;;;19.01;43.43;100581.09;5060800;28;45323;-76
2021/11/21 08:51:34;;;;;;;;;14.25;12.00;;;;;19.03;43.00;100588.09;5059129;28;45345;-75
2021/11/21 08:53:59;;;;;;;;;12.00;12.00;;;;;19.04;42.98;100578.38;5058719;28;58378;-76
2021/11/21 08:56:25;;;;;;;;;12.75;12.75;;;;;19.03;43.31;100584.59;5042343;28;45433;-76
2021/11/21 08:58:50;;;;;;;;;16.00;14.00;;;;;19.03;42.69;100584.59;5042401;28;47318;-75
2021/11/21 09:01:15;;;;;;;;;13.50;12.75;;;;;19.02;43.12;100583.69;5058876;28;50551;-76
2021/11/21 09:03:41;;;;;;;;;11.00;9.50;;;;;19.03;43.12;100581.94;5059111;28;45274;-76
2021/11/21 09:06:06;;;;;;;;;14.25;12.25;;;;;19.01;43.00;100583.72;5041990;28;45469;-77
2021/11/21 09:08:32;;;;;;;;;18.50;15.50;;;;;19.00;43.16;100577.56;5058251;28;47935;-77
2021/11/21 09:10:57;;;;;;;;;14.00;10.25;;;;;18.97;43.33;100576.81;5058439;28;45259;-75
2021/11/21 09:13:23;;;;;;;;;13.50;11.50;;;;;18.96;43.11;100580.38;5042480;28;45479;-75
2021/11/21 09:15:48;;;;;;;;;18.00;15.25;;;;;18.93;43.22;100590.09;5060151;28;45354;-77
2021/11/21 09:18:14;;;;;;;;;15.00;14.25;;;;;18.91;42.96;100589.28;5060009;28;46005;-76
2021/11/21 09:20:39;;;;;;;;;15.50;13.25;;;;;18.91;43.42;100576.06;5058538;28;45307;-76
2021/11/21 09:23:12;;;;;;;;;13.00;13.00;;;;;18.94;43.54;100569.84;5059007;28;45440;-76
2021/11/21 09:25:39;;;;;;;;;12.50;11.00;;;;;18.97;43.08;100566.22;5059080;28;45319;-75
2021/11/21 09:28:05;;;;;;;;;15.50;12.75;;;;;18.98;43.53;100562.66;5059480;28;45497;-75
2021/11/21 09:30:31;;;;;;;;;15.75;15.25;;;;;18.98;43.78;100554.72;5058805;28;45414;-77
2021/11/21 09:32:56;;;;;;;;;14.75;13.25;;;;;19.01;43.40;100547.56;5058861;28;45460;-76
2021/11/21 09:35:21;;;;;;;;;15.75;12.00;;;;;19.02;43.61;100549.28;5057362;28;66412;-77
2021/11/21 09:37:47;;;;;;;;;14.00;12.00;;;;;19.01;43.54;100558.16;5058718;28;45320;-75
2021/11/21 09:40:14;;;;;;;;;14.50;13.00;;;;;19.01;43.15;100570.50;5025178;28;45882;-77
2021/11/21 09:42:40;;;;;;;;;15.75;12.50;;;;;18.98;43.25;100579.41;5058676;28;45473;-76
2021/11/21 09:45:10;;;;;;;;;15.50;13.75;;;;;18.97;43.26;100587.38;5041821;28;45292;-76
2021/11/21 09:47:35;;;;;;;;;16.50;13.75;;;;;18.95;43.18;100586.56;5061474;28;46215;-75
2021/11/21 09:50:03;;;;;;;;;17.00;15.00;;;;;18.95;43.28;100594.50;5060041;28;45373;-76
2021/11/21 09:52:29;;;;;;;;;14.75;12.75;;;;;18.94;43.25;100596.28;5058755;28;45363;-75
2021/11/21 09:55:00;;;;;;;;;18.25;15.00;;;;;18.92;43.29;100582.22;5058339;28;45191;-76
2021/11/21 09:57:28;;;;;;;;;16.75;14.00;;;;;18.93;43.44;100583.94;5029691;28;48611;-76
2021/11/21 10:00:00;;;;;;;;;16.00;13.50;;;;;18.91;43.75;100581.34;5038607;28;45258;-77
2021/11/21 10:03:04;;;;;;;;;14.50;12.75;;;;;18.92;43.96;100576.91;5021576;28;45265;-76
2021/11/21 10:05:32;;;;;;;;;11.75;11.75;;;;;18.92;43.78;100574.28;5033201;28;46010;-76
2021/11/21 10:08:14;;;;;;;;;11.75;11.75;;;;;18.93;43.75;100574.22;5058107;28;47556;-77
2021/11/21 10:10:43;;;;;;;;;10.75;9.50;;;;;18.93;43.59;100576.00;5041619;28;45375;-75
2021/11/21 10:13:27;;;;;;;;;16.00;12.00;;;;;18.92;43.99;100572.50;5058379;28;45254;-76
2021/11/21 10:15:57;;;;;;;;;16.00;13.50;;;;;18.91;43.75;100567.25;5059205;28;45584;-77
2021/11/21 10:18:36;;;;;;;;;;;;;;;;;;;;;
2021/11/21 10:21:08;;;;;;;;;13.00;12.75;;;;;18.88;43.77;100559.41;5058500;28;74401;-77
2021/11/21 10:23:33;;;;;;;;;16.50;15.00;;;;;18.89;43.70;100553.22;5061789;28;45497;-77
2021/11/21 10:26:02;;;;;;;;;16.25;13.75;;;;;18.88;43.86;100552.34;5044577;28;51672;-76
2021/11/21 10:28:29;;;;;;;;;12.50;11.50;;;;;18.89;43.92;100553.22;5044661;28;48657;-76
2021/11/21 10:31:22;;;;;;;;;12.75;11.50;;;;;18.89;43.69;100555.84;5045008;28;45256;-75
2021/11/21 10:33:55;;;;;;;;;15.25;13.50;;;;;18.91;43.75;100557.53;5064043;27;45370;-76
2021/11/21 10:36:30;;;;;;;;;16.50;13.75;;;;;18.91;43.80;100561.97;5044276;28;45567;-76
2021/11/21 10:39:06;;;;;;;;;15.50;13.75;;;;;18.88;43.63;100551.50;5062551;28;45450;-77
2021/11/21 10:41:37;;;;;;;;;15.25;13.50;;;;;18.86;44.35;100555.97;5061035;28;45343;-76
2021/11/21 10:44:04;;;;;;;;;16.50;14.00;;;;;18.86;44.13;100556.81;5052148;28;45471;-77
2021/11/21 10:46:43;;;;;;;;;15.00;15.00;;;;;18.88;43.79;100554.13;5040969;28;45538;-76
2021/11/21 10:49:26;;;;;;;;;12.00;11.75;;;;;18.90;44.44;100552.31;5044071;28;46829;-77
2021/11/21 10:51:57;;;;;;;;;12.00;10.75;;;;;18.92;44.02;100542.53;5048567;28;45363;-76
2021/11/21 10:54:26;;;;;;;;;13.00;11.75;;;;;18.91;43.83;100540.81;5062543;28;45358;-76
2021/11/21 10:56:56;;;;;;;;;18.50;13.00;;;;;18.93;44.08;100542.50;5061344;28;45530;-76
2021/11/21 10:59:37;;;;;;;;;11.00;11.00;;;;;18.96;43.99;100536.28;5044265;28;46046;-76
2021/11/21 11:02:30;;;;;;;;;14.50;13.50;;;;;18.97;44.21;100543.28;5027993;28;45964;-76
2021/11/21 11:05:06;;;;;;;;;15.50;14.50;;;;;18.97;44.08;100543.28;5047838;28;45464;-77
2021/11/21 11:07:46;;;;;;;;;16.50;15.25;;;;;18.98;43.97;100537.09;5062122;28;45417;-76
2021/11/21 11:10:19;;;;;;;;;15.25;13.25;;;;;18.99;43.97;100533.53;5060879;28;48489;-77
2021/11/21 11:12:50;;;;;;;;;15.00;14.25;;;;;18.98;43.99;100539.72;5062007;28;45248;-76